Time;durP1;ratioP1;P1;durP2;ratioP2;P2;SDS_P1;SDS_P2;PMS_P1;PMS_P2;Temp;Humidity;BMP_temperature;BMP_pressure;BME280_temperature;BME280_humidity;BME280_pressure;Samples;Min_cycle;Max_cycle;Signal;HPM_P1;HPM_P2
2022/12/20 00:02:38;;;;;;;0.90;0.70;;;;;;;-145.06;100.00;60892.56;5916442;23;19941;-91
2022/12/20 00:05:17;;;;;;;1.20;0.67;;;;;;;-145.06;100.00;60892.56;5915861;23;20356;-91
2022/12/20 00:07:56;;;;;;;0.80;0.50;;;;;;;-145.06;100.00;60892.56;5927058;23;20234;-91
2022/12/20 00:10:40;;;;;;;0.95;0.43;;;;;;;-145.06;100.00;60892.56;5915853;23;20246;-91
2022/12/20 00:13:22;;;;;;;1.70;0.70;;;;;;;-145.06;100.00;60892.56;5926894;23;20009;-90
2022/12/20 00:16:10;;;;;;;0.85;0.55;;;;;;;-145.06;100.00;60892.56;5916112;23;20041;-90
2022/12/20 00:18:51;;;;;;;0.70;0.50;;;;;;;-145.06;100.00;60892.56;5916005;23;20002;-92
2022/12/20 00:21:32;;;;;;;0.73;0.50;;;;;;;-145.06;100.00;60892.56;5915790;23;20014;-91
2022/12/20 00:24:13;;;;;;;0.50;0.43;;;;;;;-145.06;100.00;60892.56;5916333;23;20010;-90
2022/12/20 00:26:55;;;;;;;0.50;0.50;;;;;;;-145.06;100.00;60892.56;5916015;23;20001;-90
2022/12/20 00:29:38;;;;;;;0.43;0.38;;;;;;;-145.06;100.00;60892.56;5916009;23;20010;-91
2022/12/20 00:32:17;;;;;;;0.55;0.43;;;;;;;-145.06;100.00;60892.56;5916283;23;20038;-91
2022/12/20 00:34:58;;;;;;;0.60;0.40;;;;;;;-145.06;100.00;60892.56;5916033;23;20089;-91
2022/12/20 00:38:00;;;;;;;1.05;0.70;;;;;;;-145.06;100.00;60892.56;5916457;23;20010;-92
2022/12/20 00:41:07;;;;;;;2.15;0.63;;;;;;;-145.06;100.00;60892.56;5916679;23;20001;-90
2022/12/20 00:43:50;;;;;;;1.10;0.55;;;;;;;-145.06;100.00;60892.56;5916946;23;20298;-91
2022/12/20 00:46:56;;;;;;;0.60;0.40;;;;;;;-145.06;100.00;60892.56;5917208;23;20065;-91
2022/12/20 00:49:46;;;;;;;0.40;0.40;;;;;;;-145.06;100.00;60892.56;5926985;23;20002;-90
2022/12/20 00:52:31;;;;;;;1.77;0.60;;;;;;;-145.06;100.00;60892.56;5916462;23;20095;-91
2022/12/20 00:55:13;;;;;;;0.70;0.52;;;;;;;-145.06;100.00;60892.56;5919783;23;20010;-91
2022/12/20 00:57:52;;;;;;;0.85;0.60;;;;;;;-145.06;100.00;60892.56;5928142;23;19998;-92
2022/12/20 01:00:35;;;;;;;1.25;0.70;;;;;;;-145.06;100.00;60892.56;5930341;23;20014;-90
2022/12/20 01:03:15;;;;;;;0.75;0.57;;;;;;;-145.06;100.00;60892.56;5916269;23;20070;-91
2022/12/20 01:05:59;;;;;;;1.10;0.68;;;;;;;-145.06;100.00;60892.56;5915595;23;20010;-91
2022/12/20 01:08:39;;;;;;;0.82;0.60;;;;;;;-145.06;100.00;60892.56;5915330;23;20010;-90
2022/12/20 01:11:26;;;;;;;0.30;0.27;;;;;;;-145.06;100.00;60892.56;5914676;23;20009;-90
2022/12/20 01:14:11;;;;;;;0.95;0.68;;;;;;;-145.06;100.00;60892.56;5915036;23;20029;-90
2022/12/20 01:16:50;;;;;;;0.93;0.70;;;;;;;-145.06;100.00;60892.56;5914398;23;20081;-92
2022/12/20 01:19:29;;;;;;;2.00;0.60;;;;;;;-145.06;100.00;60892.56;5915220;23;20006;-92
2022/12/20 01:22:08;;;;;;;1.40;0.80;;;;;;;-145.06;100.00;60892.56;5915147;23;20333;-90
2022/12/20 01:24:47;;;;;;;1.20;0.73;;;;;;;-145.06;100.00;60892.56;5915625;23;20010;-90
2022/12/20 01:27:27;;;;;;;2.55;0.60;;;;;;;-145.06;100.00;60892.56;5914972;23;20010;-90
2022/12/20 01:30:07;;;;;;;0.80;0.70;;;;;;;-145.06;100.00;60892.56;5914689;23;20002;-91
2022/12/20 01:32:46;;;;;;;1.15;0.80;;;;;;;-145.06;100.00;60892.56;5914832;23;20009;-91
2022/12/20 01:35:25;;;;;;;0.82;0.60;;;;;;;-145.06;100.00;60892.56;5915001;23;20005;-90
2022/12/20 01:38:04;;;;;;;0.75;0.52;;;;;;;-145.06;100.00;60892.56;5914519;23;20077;-90
2022/12/20 01:40:44;;;;;;;0.90;0.70;;;;;;;-145.06;100.00;60892.56;5914400;23;20002;-91
2022/12/20 01:43:25;;;;;;;0.80;0.70;;;;;;;-145.06;100.00;60892.56;5913785;23;20238;-91
2022/12/20 01:46:05;;;;;;;0.95;0.65;;;;;;;-145.06;100.00;60892.56;5914199;23;20009;-89
2022/12/20 01:48:52;;;;;;;0.80;0.65;;;;;;;-145.06;100.00;60892.56;5914061;23;20009;-90
2022/12/20 01:51:38;;;;;;;1.40;0.90;;;;;;;-145.06;100.00;60892.56;5914173;23;20006;-90
2022/12/20 01:54:29;;;;;;;0.70;0.50;;;;;;;-145.06;100.00;60892.56;5914212;23;20006;-91
2022/12/20 01:57:17;;;;;;;1.10;0.68;;;;;;;-145.06;100.00;60892.56;5913873;23;20006;-91
2022/12/20 01:59:57;;;;;;;0.93;0.55;;;;;;;-145.06;100.00;60892.56;5914012;23;20002;-91
2022/12/20 02:02:37;;;;;;;1.60;0.70;;;;;;;-145.06;100.00;60892.56;5914034;23;20590;-89
2022/12/20 02:05:19;;;;;;;1.20;0.68;;;;;;;-145.06;100.00;60892.56;5913731;23;20010;-90
2022/12/20 02:07:58;;;;;;;1.17;0.70;;;;;;;-145.06;100.00;60892.56;5913474;23;20010;-90
2022/12/20 02:10:46;;;;;;;1.02;0.68;;;;;;;-145.06;100.00;60892.56;5914047;23;20310;-91
2022/12/20 02:13:44;;;;;;;1.05;0.50;;;;;;;-145.06;100.00;60892.56;5913932;23;20381;-90
2022/12/20 02:16:28;;;;;;;1.27;0.70;;;;;;;-145.06;100.00;60892.56;5914223;23;20006;-91
2022/12/20 02:19:35;;;;;;;0.95;0.63;;;;;;;-145.06;100.00;60892.56;5913544;23;20002;-91
2022/12/20 02:22:52;;;;;;;0.55;0.38;;;;;;;-145.06;100.00;60892.56;5924488;23;20085;-91
2022/12/20 02:25:43;;;;;;;0.75;0.60;;;;;;;-145.06;100.00;60892.56;5913700;23;20314;-90
2022/12/20 02:28:41;;;;;;;0.70;0.50;;;;;;;-145.06;100.00;60892.56;5912760;23;20009;-91
2022/12/20 02:31:28;;;;;;;0.70;0.50;;;;;;;-145.06;100.00;60892.56;5924176;23;20006;-90
2022/12/20 02:34:09;;;;;;;0.73;0.30;;;;;;;-145.06;100.00;60892.56;5914154;23;20010;-91
2022/12/20 02:36:48;;;;;;;1.02;0.60;;;;;;;-145.06;100.00;60892.56;5923839;23;20029;-90
2022/12/20 02:39:30;;;;;;;0.60;0.43;;;;;;;-145.06;100.00;60892.56;5892699;23;20002;-90
2022/12/20 02:42:12;;;;;;;0.68;0.45;;;;;;;-145.06;100.00;60892.56;5893028;23;20261;-90
2022/12/20 02:45:14;;;;;;;0.95;0.40;;;;;;;-145.06;100.00;60892.56;5893019;23;20010;-90
2022/12/20 02:48:03;;;;;;;0.77;0.50;;;;;;;-145.06;100.00;60892.56;5892355;23;20037;-90
2022/12/20 02:50:48;;;;;;;0.50;0.40;;;;;;;-145.06;100.00;60892.56;5892745;23;20002;-90
2022/12/20 02:53:28;;;;;;;0.43;0.43;;;;;;;-145.06;100.00;60892.56;5892693;23;20085;-91
2022/12/20 02:56:17;;;;;;;1.17;0.60;;;;;;;-145.06;100.00;60892.56;5893220;23;20037;-89
2022/12/20 02:59:05;;;;;;;0.35;0.35;;;;;;;-145.06;100.00;60892.56;5893123;23;19998;-90
2022/12/20 03:01:48;;;;;;;0.85;0.60;;;;;;;-145.06;100.00;60892.56;5924482;23;20006;-90
2022/12/20 03:04:33;;;;;;;0.73;0.50;;;;;;;-145.06;100.00;60892.56;5893771;23;20006;-90
2022/12/20 03:07:13;;;;;;;1.27;0.50;;;;;;;-145.06;100.00;60892.56;5893267;23;20029;-91
2022/12/20 03:09:53;;;;;;;0.90;0.60;;;;;;;-145.06;100.00;60892.56;5892507;23;20423;-91
2022/12/20 03:12:32;;;;;;;0.90;0.70;;;;;;;-145.06;100.00;60892.56;5894315;23;20010;-90
2022/12/20 03:15:11;;;;;;;0.88;0.60;;;;;;;-145.06;100.00;60892.56;5893093;23;20010;-90
2022/12/20 03:17:50;;;;;;;0.45;0.40;;;;;;;-145.06;100.00;60892.56;5895716;23;20010;-90
2022/12/20 03:20:29;;;;;;;0.85;0.50;;;;;;;-145.06;100.00;60892.56;5894421;23;20132;-90
2022/12/20 03:23:08;;;;;;;0.80;0.60;;;;;;;-145.06;100.00;60892.56;5892899;23;20591;-89
2022/12/20 03:25:47;;;;;;;0.60;0.50;;;;;;;-145.06;100.00;60892.56;5892901;23;20006;-91
2022/12/20 03:28:26;;;;;;;1.03;0.60;;;;;;;-145.06;100.00;60892.56;5892949;23;20006;-88
2022/12/20 03:31:05;;;;;;;0.75;0.52;;;;;;;-145.06;100.00;60892.56;5892885;23;20010;-89
2022/12/20 03:33:44;;;;;;;1.17;0.40;;;;;;;-145.06;100.00;60892.56;5892329;23;20010;-91
2022/12/20 03:36:23;;;;;;;0.30;0.30;;;;;;;-145.06;100.00;60892.56;5893270;23;20238;-90
2022/12/20 03:39:03;;;;;;;0.40;0.40;;;;;;;-145.06;100.00;60892.56;5893540;23;20033;-91
2022/12/20 03:41:42;;;;;;;0.35;0.30;;;;;;;-145.06;100.00;60892.56;5893114;23;20010;-88
2022/12/20 03:44:23;;;;;;;0.60;0.40;;;;;;;-145.06;100.00;60892.56;5892428;23;20009;-90
2022/12/20 03:47:02;;;;;;;0.40;0.40;;;;;;;-145.06;100.00;60892.56;5892814;23;20369;-90
2022/12/20 03:49:41;;;;;;;0.97;0.40;;;;;;;-145.06;100.00;60892.56;5924123;23;20014;-91
2022/12/20 03:52:20;;;;;;;0.50;0.40;;;;;;;-145.06;100.00;60892.56;5893237;23;20010;-90
2022/12/20 03:54:59;;;;;;;0.45;0.40;;;;;;;-145.06;100.00;60892.56;5892659;23;20013;-90
2022/12/20 03:57:39;;;;;;;0.60;0.50;;;;;;;-145.06;100.00;60892.56;5892413;23;20006;-89
2022/12/20 04:00:19;;;;;;;0.37;0.37;;;;;;;-145.06;100.00;60892.56;5892825;23;20005;-90
2022/12/20 04:03:01;;;;;;;0.32;0.30;;;;;;;-145.06;100.00;60892.56;5892231;23;20238;-90
2022/12/20 04:05:40;;;;;;;0.98;0.52;;;;;;;-145.06;100.00;60892.56;5892741;23;20002;-90
2022/12/20 04:08:20;;;;;;;0.40;0.40;;;;;;;-145.06;100.00;60892.56;5893880;23;20010;-89
2022/12/20 04:14:07;;;;;;;0.60;0.40;;;;;;;-145.06;100.00;60892.56;5919018;23;20452;-89
2022/12/20 04:16:46;;;;;;;1.35;0.43;;;;;;;-145.06;100.00;60892.56;5893173;23;20033;-89
2022/12/20 04:19:25;;;;;;;0.80;0.52;;;;;;;-145.06;100.00;60892.56;5893246;23;20084;-90
2022/12/20 04:22:04;;;;;;;0.47;0.30;;;;;;;-145.06;100.00;60892.56;5893206;23;20037;-90
2022/12/20 04:24:43;;;;;;;0.63;0.50;;;;;;;-145.06;100.00;60892.56;5893767;23;20002;-91
2022/12/20 04:27:22;;;;;;;0.30;0.30;;;;;;;-145.06;100.00;60892.56;5894053;23;20266;-89
2022/12/20 04:30:01;;;;;;;0.80;0.47;;;;;;;-145.06;100.00;60892.56;5893011;23;20377;-90
2022/12/20 04:32:40;;;;;;;0.77;0.60;;;;;;;-145.06;100.00;60892.56;5894469;23;20006;-91
2022/12/20 04:35:20;;;;;;;0.80;0.30;;;;;;;-145.06;100.00;60892.56;5893504;23;20553;-90
2022/12/20 04:37:59;;;;;;;0.52;0.40;;;;;;;-145.06;100.00;60892.56;5904186;23;20010;-90
2022/12/20 04:40:38;;;;;;;0.33;0.30;;;;;;;-145.06;100.00;60892.56;5914133;23;20029;-90
2022/12/20 04:43:18;;;;;;;0.40;0.40;;;;;;;-145.06;100.00;60892.56;5914610;23;20010;-89
2022/12/20 04:45:57;;;;;;;0.38;0.30;;;;;;;-145.06;100.00;60892.56;5914863;23;20005;-90
2022/12/20 04:48:39;;;;;;;0.73;0.50;;;;;;;-145.06;100.00;60892.56;5913992;23;20006;-90
2022/12/20 04:51:18;;;;;;;1.45;0.70;;;;;;;-145.06;100.00;60892.56;5914248;23;20326;-91
2022/12/20 04:53:57;;;;;;;0.95;0.80;;;;;;;-145.06;100.00;60892.56;5914089;23;20009;-90
2022/12/20 04:56:37;;;;;;;1.13;0.60;;;;;;;-145.06;100.00;60892.56;5914476;23;20002;-90
2022/12/20 04:59:16;;;;;;;1.08;0.65;;;;;;;-145.06;100.00;60892.56;5914430;23;20006;-90
2022/12/20 05:01:55;;;;;;;0.98;0.70;;;;;;;-145.06;100.00;60892.56;5913740;23;20006;-91
2022/12/20 05:04:35;;;;;;;0.85;0.50;;;;;;;-145.06;100.00;60892.56;5914602;23;20002;-90
2022/12/20 05:07:21;;;;;;;0.77;0.50;;;;;;;-145.06;100.00;60892.56;5914895;23;20618;-90
2022/12/20 05:10:03;;;;;;;0.63;0.40;;;;;;;-145.06;100.00;60892.56;5913982;23;20006;-90
2022/12/20 05:12:42;;;;;;;1.17;0.60;;;;;;;-145.06;100.00;60892.56;5915255;23;20014;-91
2022/12/20 05:16:03;;;;;;;0.40;0.40;;;;;;;-145.06;100.00;60892.56;5919082;23;20009;-93
2022/12/20 05:26:17;;;;;;;1.17;0.60;;;;;;;-145.06;100.00;60892.56;5870726;23;20011;-92
2022/12/20 05:30:17;;;;;;;;;;;;;;;;;;;;;
2022/12/20 05:33:33;;;;;;;0.82;0.50;;;;;;;-145.06;100.00;60892.56;5869347;23;20015;-92
2022/12/20 05:38:54;;;;;;;0.82;0.43;;;;;;;-145.06;100.00;60892.56;6002957;22;20063;-92
2022/12/20 05:41:39;;;;;;;0.75;0.57;;;;;;;-145.06;100.00;60892.56;6001725;23;20005;-92
2022/12/20 05:44:19;;;;;;;0.50;0.50;;;;;;;-145.06;100.00;60892.56;6001921;23;20005;-92
2022/12/20 05:47:00;;;;;;;0.80;0.47;;;;;;;-145.06;100.00;60892.56;5993212;23;20499;-90
2022/12/20 05:57:22;;;;;;;0.70;0.57;;;;;;;-145.06;100.00;60892.56;5956485;23;20096;-91
2022/12/20 07:08:05;;;;;;;;;;;;;;;;;;;;;
2022/12/20 07:11:39;;;;;;;0.90;0.60;;;;;;;-145.06;100.00;60892.56;5960827;23;20317;-92
2022/12/20 07:15:17;;;;;;;;;;;;;;;;;;;;;
2022/12/20 07:18:00;;;;;;;0.40;0.40;;;;;;;-145.06;100.00;60892.56;5826722;23;20501;-93
2022/12/20 07:21:00;;;;;;;0.70;0.50;;;;;;;-145.06;100.00;60892.56;5870462;23;20003;-92
2022/12/20 07:27:09;;;;;;;1.10;0.60;;;;;;;-145.06;100.00;60892.56;5901240;23;20002;-94
2022/12/20 07:30:15;;;;;;;0.90;0.60;;;;;;;-145.06;100.00;60892.56;5902400;23;20002;-91
2022/12/20 07:36:47;;;;;;;1.10;0.60;;;;;;;-145.06;100.00;60892.56;5930221;23;20010;-93
2022/12/20 07:39:37;;;;;;;0.55;0.40;;;;;;;-145.06;100.00;60892.56;5883620;23;20003;-91
2022/12/20 07:42:21;;;;;;;0.88;0.50;;;;;;;-145.06;100.00;60892.56;5895732;23;20436;-92
2022/12/20 07:53:47;;;;;;;0.57;0.50;;;;;;;-145.06;100.00;60892.56;5852912;23;20013;-92
2022/12/20 08:04:14;;;;;;;;;;;;;;;;;;;;;
2022/12/20 08:08:07;;;;;;;;;;;;;;;;;;;;;
2022/12/20 08:11:59;;;;;;;0.65;0.38;;;;;;;-145.06;100.00;60892.56;5889620;23;20014;-93
2022/12/20 08:15:47;;;;;;;;;;;;;;;;;;;;;
2022/12/20 08:19:05;;;;;;;0.82;0.50;;;;;;;-145.06;100.00;60892.56;5895920;23;20034;-92
2022/12/20 08:23:05;;;;;;;;;;;;;;;;;;;;;
2022/12/20 08:42:09;;;;;;;0.57;0.40;;;;;;;-145.06;100.00;60892.56;5961038;23;20005;-90
2022/12/20 08:45:06;;;;;;;0.50;0.38;;;;;;;-145.06;100.00;60892.56;5987738;23;20009;-92
2022/12/20 08:48:26;;;;;;;0.52;0.28;;;;;;;-145.06;100.00;60892.56;5986645;23;20474;-91
2022/12/20 08:52:07;;;;;;;0.55;0.55;;;;;;;-145.06;100.00;60892.56;5941046;23;20040;-92
2022/12/20 08:59:30;;;;;;;;;;;;;;;;;;;;;
2022/12/20 09:05:59;;;;;;;;;;;;;;;;;;;;;
2022/12/20 09:09:10;;;;;;;;;;;;;;;;;;;;;
2022/12/20 09:16:00;;;;;;;1.17;0.40;;;;;;;-145.06;100.00;60892.56;6013237;23;20004;-92
2022/12/20 09:26:44;;;;;;;0.52;0.40;;;;;;;-145.06;100.00;60892.56;5881721;23;20469;-92
2022/12/20 09:29:55;;;;;;;0.75;0.47;;;;;;;-145.06;100.00;60892.56;5895228;23;20003;-91
2022/12/20 09:33:04;;;;;;;0.40;0.40;;;;;;;-145.06;100.00;60892.56;5871113;23;20006;-91
2022/12/20 09:36:16;;;;;;;1.50;0.60;;;;;;;-145.06;100.00;60892.56;5871129;23;20429;-90
2022/12/20 09:40:02;;;;;;;;;;;;;;;;;;;;;
2022/12/20 09:55:22;;;;;;;;;;;;;;;;;;;;;
2022/12/20 10:11:59;;;;;;;;;;;;;;;;;;;;;
2022/12/20 10:19:29;;;;;;;1.40;0.50;;;;;;;-145.06;100.00;60892.56;5968077;23;20005;-91
2022/12/20 10:22:51;;;;;;;1.25;0.40;;;;;;;-145.06;100.00;60892.56;5898955;23;20009;-90
2022/12/20 10:26:32;;;;;;;1.75;0.68;;;;;;;-145.06;100.00;60892.56;5898825;23;19998;-91
2022/12/20 10:30:16;;;;;;;;;;;;;;;;;;;;;
2022/12/20 10:52:03;;;;;;;0.60;0.50;;;;;;;-145.06;100.00;60892.56;5901296;23;20019;-93
2022/12/20 13:48:21;;;;;;;;;;;;;;;;;;;;;
2022/12/20 14:22:43;;;;;;;1.67;0.45;;;;;;;-145.06;100.00;60892.56;6001015;22;20013;-92
2022/12/20 14:29:56;;;;;;;;;;;;;;;;;;;;;
2022/12/20 14:33:29;;;;;;;1.48;0.50;;;;;;;-145.06;100.00;60892.56;5959411;23;20005;-91
2022/12/20 14:37:21;;;;;;;0.85;0.52;;;;;;;-145.06;100.00;60892.56;5896689;23;20017;-92
2022/12/20 14:40:57;;;;;;;1.02;0.50;;;;;;;-145.06;100.00;60892.56;5924853;23;20306;-92
2022/12/20 14:48:11;;;;;;;;;;;;;;;;;;;;;
2022/12/20 14:51:25;;;;;;;0.50;0.30;;;;;;;-145.06;100.00;60892.56;5977849;23;20004;-91
2022/12/20 14:54:16;;;;;;;0.88;0.50;;;;;;;-145.06;100.00;60892.56;5958449;23;20017;-90
2022/12/20 14:57:50;;;;;;;0.50;0.50;;;;;;;-145.06;100.00;60892.56;5955776;23;20009;-91
2022/12/20 15:00:36;;;;;;;1.08;0.40;;;;;;;-145.06;100.00;60892.56;5976410;23;20009;-91
2022/12/20 15:06:44;;;;;;;0.68;0.50;;;;;;;-145.06;100.00;60892.56;5985952;23;20004;-91
2022/12/20 15:09:26;;;;;;;0.60;0.47;;;;;;;-145.06;100.00;60892.56;5974860;23;20009;-91
2022/12/20 15:19:37;;;;;;;;;;;;;;;;;;;;;
2022/12/20 15:22:31;;;;;;;;;;;;;;;;;;;;;
2022/12/20 15:25:46;;;;;;;1.15;0.22;;;;;;;-145.06;100.00;60892.56;5897800;23;20010;-90
2022/12/20 15:28:29;;;;;;;0.47;0.38;;;;;;;-145.06;100.00;60892.56;5839340;23;20006;-93
2022/12/20 15:31:30;;;;;;;;;;;;;;;;;;;;;
2022/12/20 15:34:57;;;;;;;;;;;;;;;;;;;;;
2022/12/20 15:37:50;;;;;;;1.02;0.40;;;;;;;-145.06;100.00;60892.56;5985866;23;20029;-90
2022/12/20 15:40:45;;;;;;;;;;;;;;;;;;;;;
2022/12/20 15:51:19;;;;;;;0.60;0.40;;;;;;;-145.06;100.00;60892.56;5985157;23;20001;-91
2022/12/20 15:54:31;;;;;;;0.68;0.25;;;;;;;-145.06;100.00;60892.56;5933218;23;20004;-90
2022/12/20 15:57:13;;;;;;;1.15;0.55;;;;;;;-145.06;100.00;60892.56;5949192;23;20005;-92
2022/12/20 15:59:55;;;;;;;0.68;0.52;;;;;;;-145.06;100.00;60892.56;5952140;23;20076;-92
2022/12/20 16:02:37;;;;;;;1.10;0.40;;;;;;;-145.06;100.00;60892.56;5951576;23;20032;-90
2022/12/20 16:05:22;;;;;;;0.88;0.30;;;;;;;-145.06;100.00;60892.56;5954580;23;20005;-91
2022/12/20 16:08:04;;;;;;;0.60;0.50;;;;;;;-145.06;100.00;60892.56;5947380;23;20005;-90
2022/12/20 16:10:52;;;;;;;0.55;0.40;;;;;;;-145.06;100.00;60892.56;5953933;23;20548;-89
2022/12/20 16:13:36;;;;;;;0.43;0.40;;;;;;;-145.06;100.00;60892.56;5954853;23;20001;-94
2022/12/20 16:16:26;;;;;;;1.00;0.60;;;;;;;-145.06;100.00;60892.56;5954364;23;20017;-90
2022/12/20 16:19:05;;;;;;;0.50;0.50;;;;;;;-145.06;100.00;60892.56;5946067;23;20309;-91
2022/12/20 16:22:25;;;;;;;0.60;0.52;;;;;;;-145.06;100.00;60892.56;5946932;23;20005;-94
2022/12/20 16:38:28;;;;;;;1.00;0.65;;;;;;;-145.06;100.00;60892.56;6001651;22;20008;-92
2022/12/20 17:02:37;;;;;;;0.40;0.30;;;;;;;-145.06;100.00;60892.56;5995722;23;20051;-92
2022/12/20 17:05:58;;;;;;;;;;;;;;;;;;;;;
2022/12/20 17:09:15;;;;;;;0.85;0.32;;;;;;;-145.06;100.00;60892.56;6013346;23;20001;-91
2022/12/20 17:11:55;;;;;;;1.33;0.38;;;;;;;-145.06;100.00;60892.56;5983684;23;20036;-92
2022/12/20 17:14:39;;;;;;;0.63;0.47;;;;;;;-145.06;100.00;60892.56;5981272;23;20008;-91
2022/12/20 17:17:19;;;;;;;0.30;0.30;;;;;;;-145.06;100.00;60892.56;5980636;23;20460;-91
2022/12/20 17:19:58;;;;;;;0.88;0.47;;;;;;;-145.06;100.00;60892.56;5981006;23;20000;-90
2022/12/20 17:22:37;;;;;;;1.10;0.63;;;;;;;-145.06;100.00;60892.56;5990760;23;20000;-90
2022/12/20 17:25:26;;;;;;;0.50;0.40;;;;;;;-145.06;100.00;60892.56;5996799;23;20358;-91
2022/12/20 17:28:05;;;;;;;0.60;0.30;;;;;;;-145.06;100.00;60892.56;6001050;23;20031;-90
2022/12/20 17:30:47;;;;;;;0.50;0.50;;;;;;;-145.06;100.00;60892.56;5980343;23;20012;-91
2022/12/20 17:33:26;;;;;;;1.10;0.50;;;;;;;-145.06;100.00;60892.56;5976840;23;20435;-92
2022/12/20 17:36:06;;;;;;;0.77;0.50;;;;;;;-145.06;100.00;60892.56;5976511;23;20426;-92
2022/12/20 17:38:48;;;;;;;1.00;0.68;;;;;;;-145.06;100.00;60892.56;5976427;23;20004;-92
2022/12/20 17:41:29;;;;;;;0.65;0.47;;;;;;;-145.06;100.00;60892.56;5978155;23;20004;-90
2022/12/20 17:44:17;;;;;;;1.10;0.70;;;;;;;-145.06;100.00;60892.56;5976299;23;20004;-91
2022/12/20 17:46:56;;;;;;;1.38;0.60;;;;;;;-145.06;100.00;60892.56;5976404;23;20028;-92
2022/12/20 17:49:36;;;;;;;1.48;1.00;;;;;;;-145.06;100.00;60892.56;5977258;23;20013;-92
2022/12/20 17:52:15;;;;;;;1.05;0.70;;;;;;;-145.06;100.00;60892.56;5977921;23;20012;-92
2022/12/20 17:54:53;;;;;;;1.40;0.82;;;;;;;-145.06;100.00;60892.56;5977038;23;20004;-91
2022/12/20 17:57:32;;;;;;;0.68;0.50;;;;;;;-145.06;100.00;60892.56;5977745;23;20017;-92
2022/12/20 18:00:17;;;;;;;0.40;0.30;;;;;;;-145.06;100.00;60892.56;5976363;23;20009;-93
2022/12/20 18:02:56;;;;;;;0.32;0.32;;;;;;;-145.06;100.00;60892.56;5976914;23;20244;-93
2022/12/20 18:05:41;;;;;;;1.25;0.50;;;;;;;-145.06;100.00;60892.56;5976523;23;20005;-91
2022/12/20 18:08:20;;;;;;;0.45;0.40;;;;;;;-145.06;100.00;60892.56;5976701;23;20004;-93
2022/12/20 18:10:59;;;;;;;0.35;0.30;;;;;;;-145.06;100.00;60892.56;5977422;23;20013;-91
2022/12/20 18:13:42;;;;;;;0.55;0.40;;;;;;;-145.06;100.00;60892.56;5977548;23;20042;-91
2022/12/20 18:16:27;;;;;;;0.50;0.40;;;;;;;-145.06;100.00;60892.56;5978770;23;20107;-91
2022/12/20 18:19:17;;;;;;;2.67;0.40;;;;;;;-145.06;100.00;60892.56;5979364;23;20004;-92
2022/12/20 18:21:58;;;;;;;0.43;0.30;;;;;;;-145.06;100.00;60892.56;5978809;23;20005;-92
2022/12/20 18:24:37;;;;;;;0.43;0.38;;;;;;;-145.06;100.00;60892.56;5978851;23;20308;-91
2022/12/20 18:27:17;;;;;;;0.77;0.40;;;;;;;-145.06;100.00;60892.56;5977535;23;20135;-92
2022/12/20 18:29:56;;;;;;;0.47;0.47;;;;;;;-145.06;100.00;60892.56;6010934;23;20588;-92
2022/12/20 18:32:35;;;;;;;1.30;0.50;;;;;;;-145.06;100.00;60892.56;5977997;23;20080;-93
2022/12/20 18:35:14;;;;;;;0.30;0.30;;;;;;;-145.06;100.00;60892.56;5976218;23;20222;-92
2022/12/20 18:37:54;;;;;;;1.42;0.40;;;;;;;-145.06;100.00;60892.56;5976886;23;20005;-93
2022/12/20 18:40:33;;;;;;;0.90;0.60;;;;;;;-145.06;100.00;60892.56;5976077;23;20446;-92
2022/12/20 18:43:12;;;;;;;0.80;0.47;;;;;;;-145.06;100.00;60892.56;6009400;23;20013;-93
2022/12/20 18:45:53;;;;;;;0.90;0.43;;;;;;;-145.06;100.00;60892.56;5979223;23;20001;-92
2022/12/20 18:48:35;;;;;;;1.10;0.50;;;;;;;-145.06;100.00;60892.56;5978291;23;20016;-92
2022/12/20 18:51:17;;;;;;;1.02;0.55;;;;;;;-145.06;100.00;60892.56;5977460;23;20032;-93
2022/12/20 18:53:57;;;;;;;0.85;0.63;;;;;;;-145.06;100.00;60892.56;5978357;23;20009;-92
2022/12/20 18:56:38;;;;;;;1.17;0.60;;;;;;;-145.06;100.00;60892.56;5975366;23;20008;-91
2022/12/20 18:59:17;;;;;;;0.70;0.50;;;;;;;-145.06;100.00;60892.56;6007955;23;20450;-89
2022/12/20 19:01:56;;;;;;;0.60;0.40;;;;;;;-145.06;100.00;60892.56;5973219;23;20008;-90
2022/12/20 19:04:35;;;;;;;0.60;0.43;;;;;;;-145.06;100.00;60892.56;6007032;23;20012;-91
2022/12/20 19:07:15;;;;;;;0.53;0.53;;;;;;;-145.06;100.00;60892.56;5975327;23;20419;-91
2022/12/20 19:09:54;;;;;;;0.75;0.43;;;;;;;-145.06;100.00;60892.56;5974525;23;20539;-91
2022/12/20 19:12:33;;;;;;;0.60;0.57;;;;;;;-145.06;100.00;60892.56;5973121;23;20016;-92
2022/12/20 19:15:13;;;;;;;1.20;0.40;;;;;;;-145.06;100.00;60892.56;5975841;23;20017;-91
2022/12/20 19:17:53;;;;;;;1.02;0.52;;;;;;;-145.06;100.00;60892.56;5976641;23;20016;-92
2022/12/20 19:20:36;;;;;;;0.55;0.45;;;;;;;-145.06;100.00;60892.56;5975302;23;20083;-91
2022/12/20 19:23:15;;;;;;;0.50;0.40;;;;;;;-145.06;100.00;60892.56;5977671;23;20008;-92
2022/12/20 19:26:02;;;;;;;0.40;0.40;;;;;;;-145.06;100.00;60892.56;5977169;23;20009;-91
2022/12/20 19:28:42;;;;;;;0.80;0.50;;;;;;;-145.06;100.00;60892.56;5977568;23;20009;-93
2022/12/20 19:31:27;;;;;;;0.50;0.45;;;;;;;-145.06;100.00;60892.56;5976197;23;20005;-91
2022/12/20 19:34:09;;;;;;;0.63;0.28;;;;;;;-145.06;100.00;60892.56;5977461;23;20008;-91
2022/12/20 19:36:48;;;;;;;0.90;0.50;;;;;;;-145.06;100.00;60892.56;5978327;23;20013;-92
2022/12/20 19:39:29;;;;;;;0.63;0.35;;;;;;;-145.06;100.00;60892.56;5979931;23;20061;-93
2022/12/20 19:42:09;;;;;;;0.50;0.40;;;;;;;-145.06;100.00;60892.56;5980140;23;20009;-91
2022/12/20 19:44:49;;;;;;;0.35;0.30;;;;;;;-145.06;100.00;60892.56;5977208;23;20005;-92
2022/12/20 19:47:32;;;;;;;0.37;0.33;;;;;;;-145.06;100.00;60892.56;5975049;23;20008;-91
2022/12/20 19:50:11;;;;;;;0.47;0.40;;;;;;;-145.06;100.00;60892.56;5977750;23;20012;-92
2022/12/20 19:52:51;;;;;;;0.45;0.43;;;;;;;-145.06;100.00;60892.56;5979108;23;20062;-91
2022/12/20 19:55:59;;;;;;;0.43;0.40;;;;;;;-145.06;100.00;60892.56;5982055;23;20005;-93
2022/12/20 20:00:54;;;;;;;0.35;0.30;;;;;;;-145.06;100.00;60892.56;5976037;23;20017;-93
2022/12/20 20:03:48;;;;;;;0.60;0.40;;;;;;;-145.06;100.00;60892.56;5955033;23;20083;-93
2022/12/20 20:06:55;;;;;;;0.50;0.32;;;;;;;-145.06;100.00;60892.56;5970018;23;20006;-93
2022/12/20 20:09:52;;;;;;;0.43;0.43;;;;;;;-145.06;100.00;60892.56;5946602;23;20001;-94
2022/12/20 20:12:55;;;;;;;0.70;0.40;;;;;;;-145.06;100.00;60892.56;5926431;23;20018;-92
2022/12/20 20:15:47;;;;;;;0.68;0.40;;;;;;;-145.06;100.00;60892.56;5924965;23;20009;-93
2022/12/20 20:18:35;;;;;;;0.30;0.30;;;;;;;-145.06;100.00;60892.56;5924908;23;20009;-91
2022/12/20 20:21:40;;;;;;;1.23;0.47;;;;;;;-145.06;100.00;60892.56;5927561;23;20001;-92
2022/12/20 20:25:35;;;;;;;0.30;0.30;;;;;;;-145.06;100.00;60892.56;5927838;23;20006;-93
2022/12/20 20:32:39;;;;;;;0.77;0.50;;;;;;;-145.06;100.00;60892.56;5955276;23;20080;-91
2022/12/20 20:36:38;;;;;;;;;;;;;;;;;;;;;
2022/12/20 20:43:04;;;;;;;0.45;0.40;;;;;;;-145.06;100.00;60892.56;5956032;23;20009;-92
2022/12/20 20:46:10;;;;;;;0.60;0.50;;;;;;;-145.06;100.00;60892.56;5924447;23;20405;-91
2022/12/20 20:49:33;;;;;;;0.35;0.32;;;;;;;-145.06;100.00;60892.56;5923523;23;20305;-92
2022/12/20 21:09:45;;;;;;;0.70;0.40;;;;;;;-145.06;100.00;60892.56;5974832;23;20021;-91
2022/12/20 21:12:41;;;;;;;;;;;;;;;;;;;;;
2022/12/20 21:23:14;;;;;;;1.25;0.40;;;;;;;-145.06;100.00;60892.56;5896984;23;20006;-92
2022/12/20 21:38:21;;;;;;;0.30;0.30;;;;;;;-145.06;100.00;60892.56;5999567;23;20013;-91
2022/12/20 21:44:46;;;;;;;0.35;0.30;;;;;;;-145.06;100.00;60892.56;5984619;23;20004;-90
2022/12/20 21:56:22;;;;;;;0.40;0.30;;;;;;;-145.06;100.00;60892.56;5924847;23;20006;-91
2022/12/20 21:59:51;;;;;;;0.40;0.40;;;;;;;-145.06;100.00;60892.56;5858109;23;20011;-92
2022/12/20 22:14:11;;;;;;;0.43;0.43;;;;;;;-145.06;100.00;60892.56;5984787;23;20009;-91
2022/12/20 22:19:57;;;;;;;0.40;0.35;;;;;;;-145.06;100.00;60892.56;5984561;23;19997;-92
2022/12/20 22:23:33;;;;;;;0.63;0.40;;;;;;;-145.06;100.00;60892.56;5974848;23;20334;-90
2022/12/20 22:26:26;;;;;;;0.70;0.50;;;;;;;-145.06;100.00;60892.56;5975550;23;20000;-91
2022/12/20 22:29:11;;;;;;;0.45;0.20;;;;;;;-145.06;100.00;60892.56;5975255;23;20080;-92
2022/12/20 22:32:23;;;;;;;0.43;0.30;;;;;;;-145.06;100.00;60892.56;5975593;23;20013;-91